createdAt,value
2023-02-13T00:00:20.736Z,15.70
2023-02-13T00:04:33.307Z,16.63
2023-02-13T00:08:45.657Z,18.15
2023-02-13T00:12:58.440Z,17.52
2023-02-13T00:17:10.869Z,16.52
2023-02-13T00:21:23.460Z,11.88
2023-02-13T00:25:37.475Z,10.85
2023-02-13T00:29:50.096Z,17.65
2023-02-13T00:34:03.926Z,18.02
2023-02-13T00:38:16.198Z,16.63
2023-02-13T00:42:28.639Z,18.13
2023-02-13T00:46:41.030Z,15.88
2023-02-13T00:50:53.596Z,13.85
2023-02-13T00:55:06.459Z,13.40
2023-02-13T00:59:21.304Z,15.30
2023-02-13T01:03:36.082Z,15.32
2023-02-13T01:07:48.618Z,18.23
2023-02-13T01:12:02.541Z,21.80
2023-02-13T01:16:18.581Z,13.40
2023-02-13T01:20:34.354Z,14.85
2023-02-13T01:24:46.857Z,15.60
2023-02-13T01:29:02.284Z,14.85
2023-02-13T01:33:16.053Z,18.20
2023-02-13T01:37:29.383Z,16.02
2023-02-13T01:41:42.314Z,19.55
2023-02-13T01:46:01.765Z,25.67
2023-02-13T01:50:26.330Z,18.85
2023-02-13T01:54:39.722Z,17.60
2023-02-13T01:58:58.092Z,22.05
2023-02-13T02:03:17.066Z,13.75
2023-02-13T02:07:31.338Z,18.20
2023-02-13T02:12:00.668Z,17.67
2023-02-13T02:16:13.283Z,17.70
2023-02-13T02:20:38.185Z,17.60
2023-02-13T02:25:34.435Z,20.52
2023-02-13T02:30:12.033Z,16.15
2023-02-13T02:34:43.056Z,16.65
2023-02-13T02:39:18.208Z,21.40
2023-02-13T02:43:52.906Z,21.38
2023-02-13T02:48:38.876Z,19.95
2023-02-13T02:53:38.627Z,21.17
2023-02-13T02:58:29.448Z,28.02
2023-02-13T03:03:03.157Z,20.35
2023-02-13T03:07:18.834Z,10.50
2023-02-13T03:11:49.890Z,12.45
2023-02-13T03:16:21.188Z,22.10
2023-02-13T03:21:24.069Z,18.85
2023-02-13T03:25:59.719Z,19.40
2023-02-13T03:30:28.055Z,21.80
2023-02-13T03:35:07.332Z,24.55
2023-02-13T03:39:44.347Z,21.10
2023-02-13T03:44:17.219Z,20.00
2023-02-13T03:48:53.136Z,21.80
2023-02-13T03:53:12.824Z,23.92
2023-02-13T03:57:46.699Z,24.95
2023-02-13T04:02:29.462Z,25.73
2023-02-13T04:06:57.551Z,25.95
2023-02-13T04:11:26.799Z,17.13
2023-02-13T04:16:10.925Z,15.50
2023-02-13T04:20:28.704Z,14.95
2023-02-13T04:24:41.250Z,23.88
2023-02-13T04:28:53.605Z,9.43
2023-02-13T04:33:06.954Z,20.77
2023-02-13T04:37:20.955Z,17.55
2023-02-13T04:41:35.693Z,20.00
2023-02-13T04:45:52.372Z,16.85
2023-02-13T04:50:06.517Z,20.65
2023-02-13T04:54:19.973Z,15.05
2023-02-13T04:58:32.496Z,21.70
2023-02-13T05:02:46.156Z,10.77
2023-02-13T05:07:00.707Z,20.65
2023-02-13T05:11:14.193Z,13.77
2023-02-13T05:15:26.708Z,24.75
2023-02-13T05:19:40.210Z,13.52
2023-02-13T05:23:53.815Z,23.38
2023-02-13T05:28:29.006Z,21.02
2023-02-13T05:32:43.615Z,16.67
2023-02-13T05:36:56.069Z,6.50
2023-02-13T05:41:09.858Z,11.18
2023-02-13T05:45:22.430Z,14.43
2023-02-13T05:49:34.802Z,24.92
2023-02-13T05:53:48.551Z,25.25
2023-02-13T05:58:02.250Z,26.92
2023-02-13T06:02:14.604Z,28.02
2023-02-13T06:06:27.553Z,14.02
2023-02-13T06:10:40.875Z,17.42
2023-02-13T06:14:54.790Z,34.97
2023-02-13T06:19:11.269Z,19.30
2023-02-13T06:23:23.601Z,18.85
2023-02-13T06:27:39.490Z,37.05
2023-02-13T06:31:53.872Z,35.25
2023-02-13T06:36:09.070Z,25.90
2023-02-13T06:40:24.347Z,38.05
2023-02-13T06:44:36.664Z,34.60
2023-02-13T06:48:49.021Z,15.80
2023-02-13T06:53:02.839Z,53.10
2023-02-13T06:57:16.097Z,32.85
2023-02-13T07:01:29.251Z,22.92
2023-02-13T07:05:56.311Z,30.35
2023-02-13T07:10:13.261Z,48.80
2023-02-13T07:14:25.982Z,28.45
2023-02-13T07:18:42.139Z,25.02
2023-02-13T07:22:57.793Z,48.85
2023-02-13T07:27:10.206Z,68.43
2023-02-13T07:31:22.779Z,64.03
2023-02-13T07:35:36.425Z,67.00
2023-02-13T07:39:48.971Z,61.40
2023-02-13T07:44:01.368Z,61.35
2023-02-13T07:48:13.751Z,66.50
2023-02-13T07:52:26.098Z,91.55
2023-02-13T07:56:38.648Z,65.82
2023-02-13T08:00:52.002Z,75.50
2023-02-13T08:05:04.660Z,57.88
2023-02-13T08:09:40.990Z,64.07
2023-02-13T08:13:53.585Z,66.72
2023-02-13T08:18:06.170Z,73.80
2023-02-13T08:22:18.698Z,60.00
2023-02-13T08:26:34.766Z,47.70
2023-02-13T08:30:47.204Z,54.50
2023-02-13T08:34:59.632Z,57.65
2023-02-13T08:39:12.178Z,37.60
2023-02-13T08:43:24.677Z,30.48
2023-02-13T08:47:37.057Z,36.40
2023-02-13T08:51:50.216Z,35.08
2023-02-13T08:56:02.579Z,35.67
2023-02-13T09:00:15.488Z,34.92
2023-02-13T09:04:28.424Z,29.77
2023-02-13T09:08:43.612Z,25.08
2023-02-13T09:12:56.006Z,29.98
2023-02-13T09:17:08.716Z,29.25
2023-02-13T09:21:25.755Z,27.88
2023-02-13T09:25:38.096Z,24.83
2023-02-13T09:29:50.361Z,24.63
2023-02-13T09:34:02.689Z,18.90
2023-02-13T09:38:15.035Z,19.50
2023-02-13T09:42:31.864Z,19.13
2023-02-13T09:46:44.764Z,19.63
2023-02-13T09:50:59.064Z,17.17
2023-02-13T09:55:20.120Z,16.95
2023-02-13T10:00:17.781Z,19.90
2023-02-13T10:04:53.029Z,16.98
2023-02-13T10:09:17.219Z,15.02
2023-02-13T10:14:00.479Z,15.35
2023-02-13T10:18:19.915Z,15.57
2023-02-13T10:22:47.382Z,15.23
2023-02-13T10:27:05.408Z,15.73
2023-02-13T10:31:23.184Z,15.15
2023-02-13T10:35:35.680Z,17.52
2023-02-13T10:39:54.351Z,12.60
2023-02-13T10:44:36.925Z,19.90
2023-02-13T10:49:05.382Z,12.05
2023-02-13T10:53:32.589Z,11.30
2023-02-13T10:57:58.098Z,16.85
2023-02-13T11:02:26.768Z,14.07
2023-02-13T11:06:48.749Z,16.15
2023-02-13T11:11:02.184Z,13.18
2023-02-13T11:15:40.898Z,15.15
2023-02-13T11:20:00.114Z,12.60
2023-02-13T11:24:24.849Z,15.05
2023-02-13T11:28:45.776Z,19.30
2023-02-13T11:33:05.457Z,17.20
2023-02-13T11:37:27.784Z,16.30
2023-02-13T11:41:44.284Z,13.13
2023-02-13T11:46:05.910Z,11.60
2023-02-13T11:50:38.045Z,11.90
2023-02-13T11:54:57.555Z,11.73
2023-02-13T11:59:14.571Z,8.98
2023-02-13T12:03:32.619Z,11.70
2023-02-13T12:07:46.471Z,13.60
2023-02-13T12:12:05.376Z,10.98
2023-02-13T12:21:01.781Z,13.23
2023-02-13T12:25:49.056Z,7.05
2023-02-13T12:30:16.576Z,7.88
2023-02-13T12:34:53.729Z,8.13
2023-02-13T12:39:35.372Z,9.07
2023-02-13T12:44:14.791Z,12.68
2023-02-13T12:48:36.749Z,10.77
2023-02-13T12:53:27.500Z,12.77
2023-02-13T13:01:55.458Z,11.60
2023-02-13T13:06:31.145Z,9.43
2023-02-13T13:11:07.192Z,12.90
2023-02-13T13:15:43.935Z,8.13
2023-02-13T13:20:15.376Z,13.32
2023-02-13T13:24:46.406Z,14.40
2023-02-13T13:29:01.910Z,10.65
2023-02-13T13:33:22.672Z,7.18
2023-02-13T13:38:02.836Z,12.15
2023-02-13T13:42:39.688Z,8.75
2023-02-13T13:47:11.965Z,13.38
2023-02-13T13:51:24.967Z,9.57
2023-02-13T13:56:18.577Z,11.73
2023-02-13T14:00:34.372Z,13.18
2023-02-13T14:05:08.289Z,13.90
2023-02-13T14:09:28.656Z,11.65
2023-02-13T14:17:56.830Z,11.25
2023-02-13T14:22:32.955Z,8.93
2023-02-13T14:27:04.796Z,10.55
2023-02-13T14:31:24.429Z,11.98
2023-02-13T14:35:39.028Z,9.15
2023-02-13T14:40:20.911Z,10.45
2023-02-13T14:44:33.840Z,13.07
2023-02-13T14:48:53.604Z,10.95
2023-02-13T14:53:17.986Z,13.93
2023-02-13T14:57:38.413Z,9.93
2023-02-13T15:01:58.126Z,11.98
2023-02-13T15:06:26.148Z,17.55
2023-02-13T15:10:50.740Z,20.45
2023-02-13T15:15:22.990Z,15.75
2023-02-13T15:19:44.166Z,15.32
2023-02-13T15:23:58.170Z,15.90
2023-02-13T15:28:24.928Z,14.80
2023-02-13T15:32:39.893Z,13.65
2023-02-13T15:36:52.879Z,22.38
2023-02-13T15:41:30.566Z,14.88
2023-02-13T15:45:44.372Z,16.52
2023-02-13T15:49:57.395Z,20.58
2023-02-13T15:54:24.876Z,17.98
2023-02-13T15:58:37.559Z,21.00
2023-02-13T16:02:51.681Z,15.05
2023-02-13T16:07:04.187Z,15.13
2023-02-13T16:11:25.476Z,18.48
2023-02-13T16:15:38.205Z,21.50
2023-02-13T16:20:02.759Z,19.45
2023-02-13T16:24:17.190Z,32.67
2023-02-13T16:28:32.980Z,37.25
2023-02-13T16:32:46.621Z,41.08
2023-02-13T16:37:00.105Z,29.35
2023-02-13T16:41:18.330Z,21.42
2023-02-13T16:45:30.654Z,20.50
2023-02-13T16:49:55.427Z,21.63
2023-02-13T16:54:46.003Z,25.58
2023-02-13T16:59:36.399Z,37.87
2023-02-13T17:03:50.125Z,28.20
2023-02-13T17:08:02.692Z,38.00
2023-02-13T17:12:19.443Z,39.60
2023-02-13T17:16:31.885Z,47.67
2023-02-13T17:20:45.710Z,51.13
2023-02-13T17:24:58.901Z,48.80
2023-02-13T17:29:11.397Z,53.75
2023-02-13T17:33:30.248Z,54.33
2023-02-13T17:37:44.204Z,40.03
2023-02-13T17:41:56.593Z,40.75
2023-02-13T17:46:09.111Z,47.55
2023-02-13T17:50:22.122Z,36.33
2023-02-13T17:54:35.645Z,27.63
2023-02-13T17:58:48.222Z,37.30
2023-02-13T18:03:02.032Z,41.80
2023-02-13T18:07:18.138Z,21.95
2023-02-13T18:11:30.761Z,30.92
2023-02-13T18:15:45.370Z,33.25
2023-02-13T18:19:58.324Z,35.25
2023-02-13T18:24:10.848Z,44.22
2023-02-13T18:28:24.672Z,40.20
2023-02-13T18:32:37.007Z,30.70
2023-02-13T18:36:50.141Z,39.80
2023-02-13T18:41:04.606Z,42.58
2023-02-13T18:45:17.027Z,35.25
2023-02-13T18:49:29.425Z,44.25
2023-02-13T18:53:42.857Z,42.20
2023-02-13T18:57:56.625Z,40.78
2023-02-13T19:02:10.629Z,35.70
2023-02-13T19:06:25.727Z,35.45
2023-02-13T19:10:38.215Z,37.50
2023-02-13T19:14:50.546Z,37.22
2023-02-13T19:19:06.380Z,34.45
2023-02-13T19:23:18.818Z,30.52
2023-02-13T19:27:31.234Z,34.75
2023-02-13T19:31:45.846Z,32.75
2023-02-13T19:36:12.274Z,33.85
2023-02-13T19:40:26.921Z,26.52
2023-02-13T19:44:39.345Z,31.65
2023-02-13T19:48:52.150Z,32.13
2023-02-13T19:53:06.120Z,28.02
2023-02-13T19:57:18.630Z,26.10
2023-02-13T20:01:31.738Z,26.92
2023-02-13T20:05:44.186Z,24.55
2023-02-13T20:09:56.603Z,30.40
2023-02-13T20:14:23.793Z,26.13
2023-02-13T20:18:38.106Z,26.08
2023-02-13T20:22:50.448Z,26.48
2023-02-13T20:27:02.880Z,26.38
2023-02-13T20:31:17.889Z,26.05
2023-02-13T20:35:30.300Z,21.45
2023-02-13T20:39:44.940Z,27.00
2023-02-13T20:44:06.066Z,21.70
2023-02-13T20:48:18.667Z,27.30
2023-02-13T20:52:31.114Z,25.73
2023-02-13T20:56:45.484Z,27.70
2023-02-13T21:00:58.229Z,30.85
2023-02-13T21:05:11.075Z,23.92
2023-02-13T21:09:23.636Z,27.58
2023-02-13T21:13:39.209Z,24.40
2023-02-13T21:17:51.714Z,26.67
2023-02-13T21:22:13.063Z,19.70
2023-02-13T21:26:28.778Z,23.55
2023-02-13T21:30:41.372Z,21.20
2023-02-13T21:34:56.035Z,19.67
2023-02-13T21:39:09.848Z,23.48
2023-02-13T21:43:23.517Z,20.95
2023-02-13T21:47:35.865Z,23.25
2023-02-13T21:51:49.874Z,21.90
2023-02-13T21:56:04.158Z,23.42
2023-02-13T22:00:16.989Z,27.52
2023-02-13T22:04:30.122Z,21.08
2023-02-13T22:08:44.182Z,23.05
2023-02-13T22:12:56.447Z,11.98
2023-02-13T22:17:09.110Z,21.40
2023-02-13T22:21:24.195Z,21.35
2023-02-13T22:25:36.626Z,21.50
2023-02-13T22:29:51.358Z,22.08
2023-02-13T22:34:06.359Z,25.65
2023-02-13T22:38:18.828Z,25.35
2023-02-13T22:42:31.989Z,22.85
2023-02-13T22:46:46.434Z,19.30
2023-02-13T22:51:05.385Z,23.52
2023-02-13T22:55:17.815Z,20.77
2023-02-13T22:59:40.245Z,13.93
2023-02-13T23:03:52.979Z,16.23
2023-02-13T23:08:05.512Z,9.75
2023-02-13T23:12:36.573Z,22.20
2023-02-13T23:17:11.195Z,22.15
2023-02-13T23:21:26.165Z,23.05
2023-02-13T23:25:40.347Z,19.48
2023-02-13T23:29:54.074Z,18.55
2023-02-13T23:34:06.465Z,20.90
2023-02-13T23:38:19.993Z,15.40
2023-02-13T23:42:32.400Z,16.05
2023-02-13T23:46:45.044Z,16.88
2023-02-13T23:50:57.738Z,14.50
2023-02-13T23:55:10.155Z,11.85
2023-02-13T23:59:24.187Z,17.98
